Lakeway's Hourly Summary for Friday, May 11, 2018
Hour Temp
(f)
RH
(%)
Solar Rad.
(MJ/m2)
Rainfall
(in)
Wind
(mph)
5/11/2018 12:00 AM 73 80 0 0 3.83
5/11/2018 1:00 AM 71 86 0 0 3.13
5/11/2018 2:00 AM 70 90 0 0 3.13
5/11/2018 3:00 AM 69 90 0 0 2.61
5/11/2018 4:00 AM 69 88 0 0 2.93
5/11/2018 5:00 AM 69 89 0 0 2.93
5/11/2018 6:00 AM 68 90 0.01 0 2.82
5/11/2018 7:00 AM 68 90 0.16 0 2.82
5/11/2018 8:00 AM 71 88 0.5 0 2.75
5/11/2018 9:00 AM 75 80 1.76 0 3.95
5/11/2018 10:00 AM 78 65 2.33 0 4.31
5/11/2018 11:00 AM 79 56 2.33 0 4.31
5/11/2018 12:00 PM 82 52 3.35 0 4.5
5/11/2018 1:00 PM 84 45 3.42 0 4.5
5/11/2018 2:00 PM 86 41 3.42 0 3.43
5/11/2018 3:00 PM 87 40 3.34 0 3.23
5/11/2018 4:00 PM 87 37 3.03 0 3.23
5/11/2018 5:00 PM 87 35 2.46 0 3.52
5/11/2018 6:00 PM 87 38 1.86 0 3.82
5/11/2018 7:00 PM 86 40 1.11 0 3.82
5/11/2018 8:00 PM 84 46 0.3 0 3.34
5/11/2018 9:00 PM 80 54 0.01 0 2.89
5/11/2018 10:00 PM 78 64 0 0 3.16
5/11/2018 11:00 PM 76 73 0 0 3.8
Data Summary 77 64 29.39 0.00 3.45